Time;durP1;ratioP1;P1;durP2;ratioP2;P2;SDS_P1;SDS_P2;PMS_P1;PMS_P2;Temp;Humidity;BMP_temperature;BMP_pressure;BME280_temperature;BME280_humidity;BME280_pressure;Samples;Min_cycle;Max_cycle;Signal;HPM_P1;HPM_P2
2023/04/03 00:00:04;;;;;;;3.93;1.33;;;1.10;99.90;;;;;;5054379;28;20186;-73
2023/04/03 00:02:30;;;;;;;3.80;1.40;;;1.00;99.90;;;;;;5054311;28;20179;-74
2023/04/03 00:04:56;;;;;;;4.43;2.27;;;1.00;99.90;;;;;;5054203;28;20413;-73
2023/04/03 00:07:21;;;;;;;1.57;1.47;;;1.00;99.90;;;;;;5053604;28;20263;-72
2023/04/03 00:09:47;;;;;;;1.90;1.57;;;1.00;99.90;;;;;;5054024;28;20163;-74
2023/04/03 00:12:13;;;;;;;7.43;3.00;;;1.00;99.90;;;;;;5054293;28;20613;-73
2023/04/03 00:14:38;;;;;;;3.30;1.40;;;1.00;99.90;;;;;;5052632;28;20409;-73
2023/04/03 00:17:04;;;;;;;1.20;1.10;;;0.90;99.90;;;;;;5053707;28;20190;-73
2023/04/03 00:19:30;;;;;;;1.67;1.57;;;0.90;99.90;;;;;;5053525;28;20232;-72
2023/04/03 00:21:56;;;;;;;5.13;1.90;;;0.90;99.90;;;;;;5053523;28;20607;-73
2023/04/03 00:24:21;;;;;;;3.20;1.20;;;0.90;99.90;;;;;;5053488;28;20216;-73
2023/04/03 00:26:47;;;;;;;2.10;1.13;;;0.90;99.90;;;;;;5054645;28;20448;-74
2023/04/03 00:29:13;;;;;;;1.43;1.27;;;0.90;99.90;;;;;;5055194;28;20163;-72
2023/04/03 00:31:38;;;;;;;2.50;1.40;;;0.90;99.90;;;;;;5055035;28;20235;-73
2023/04/03 00:34:04;;;;;;;6.63;2.17;;;0.90;99.90;;;;;;5055141;28;20173;-72
2023/04/03 00:36:30;;;;;;;2.73;1.60;;;0.90;99.90;;;;;;5059460;28;20203;-73
2023/04/03 00:38:55;;;;;;;2.73;1.70;;;0.90;99.90;;;;;;5058037;28;20304;-72
2023/04/03 00:41:21;;;;;;;1.30;1.20;;;0.90;99.90;;;;;;5054817;28;20182;-73
2023/04/03 00:43:47;;;;;;;1.57;1.47;;;0.90;99.90;;;;;;5053149;28;20178;-73
2023/04/03 00:46:12;;;;;;;4.40;1.37;;;0.80;99.90;;;;;;5052960;28;20194;-73
2023/04/03 00:48:43;;;;;;;1.70;1.30;;;0.80;99.90;;;;;;5053170;28;20173;-73
2023/04/03 00:51:13;;;;;;;3.00;1.60;;;0.80;99.90;;;;;;5053189;28;20159;-73
2023/04/03 00:53:43;;;;;;;5.90;1.50;;;0.80;99.90;;;;;;5050843;28;20899;-73
2023/04/03 00:56:12;;;;;;;2.13;1.80;;;0.80;99.90;;;;;;5053012;28;20418;-72
2023/04/03 00:58:48;;;;;;;1.30;1.20;;;0.80;99.90;;;;;;5050042;28;20405;-72
2023/04/03 01:01:18;;;;;;;2.03;1.83;;;0.80;99.90;;;;;;5051929;28;20838;-73
2023/04/03 01:03:43;;;;;;;1.90;1.50;;;0.80;99.90;;;;;;5049434;28;20444;-73
2023/04/03 01:06:10;;;;;;;2.53;1.70;;;0.70;99.90;;;;;;5052384;28;20461;-72
2023/04/03 01:08:35;;;;;;;2.03;1.67;;;0.70;99.90;;;;;;5043269;28;20170;-73
2023/04/03 01:11:01;;;;;;;1.67;1.20;;;0.70;99.90;;;;;;5052741;28;20401;-72
2023/04/03 01:13:32;;;;;;;1.93;1.43;;;0.70;99.90;;;;;;5052757;28;20170;-75
2023/04/03 01:16:02;;;;;;;4.47;1.50;;;0.70;99.90;;;;;;5047729;28;20198;-73
2023/04/03 01:18:28;;;;;;;1.57;1.30;;;0.70;99.90;;;;;;5051143;28;20776;-72
2023/04/03 01:21:09;;;;;;;1.53;1.20;;;0.70;99.90;;;;;;5052496;28;20416;-73
2023/04/03 01:23:47;;;;;;;2.67;1.30;;;0.60;99.90;;;;;;5045186;28;20762;-74
2023/04/03 01:26:13;;;;;;;3.10;1.83;;;0.60;99.90;;;;;;5049431;28;20468;-72
2023/04/03 01:28:39;;;;;;;3.27;1.80;;;0.60;99.90;;;;;;5052067;28;20417;-73
2023/04/03 01:31:15;;;;;;;2.63;1.70;;;0.60;99.90;;;;;;5052283;28;20409;-73
2023/04/03 01:33:41;;;;;;;4.23;1.37;;;0.60;99.90;;;;;;5044911;28;20189;-73
2023/04/03 01:36:10;;;;;;;1.63;1.50;;;0.50;99.90;;;;;;5051916;28;20508;-73
2023/04/03 01:38:35;;;;;;;2.20;1.63;;;0.50;99.90;;;;;;5043844;28;20743;-72
2023/04/03 01:41:01;;;;;;;2.73;1.23;;;0.50;99.90;;;;;;5052310;28;20821;-73
2023/04/03 01:43:27;;;;;;;2.90;1.60;;;0.40;99.90;;;;;;5052132;28;20193;-72
2023/04/03 01:45:54;;;;;;;1.60;1.50;;;0.40;99.90;;;;;;5051949;28;20248;-72
2023/04/03 01:48:20;;;;;;;4.20;1.87;;;0.40;99.90;;;;;;5051906;28;20203;-72
2023/04/03 01:50:46;;;;;;;2.10;1.63;;;0.40;99.90;;;;;;5052086;28;20471;-73
2023/04/03 01:53:13;;;;;;;4.53;1.60;;;0.40;99.90;;;;;;5051919;28;20449;-73
2023/04/03 01:55:39;;;;;;;8.13;1.80;;;0.30;99.90;;;;;;5052017;28;20463;-73
2023/04/03 01:58:05;;;;;;;1.93;1.80;;;0.30;99.90;;;;;;5051709;28;20413;-72
2023/04/03 02:00:30;;;;;;;1.97;1.43;;;0.30;99.90;;;;;;5049742;28;20202;-73
2023/04/03 02:02:56;;;;;;;1.67;1.40;;;0.30;99.90;;;;;;5044231;28;20258;-73
2023/04/03 02:05:22;;;;;;;3.20;1.80;;;0.30;99.90;;;;;;5045744;28;20648;-73
2023/04/03 02:07:48;;;;;;;3.70;1.23;;;0.20;99.90;;;;;;5051437;28;20506;-73
2023/04/03 02:10:13;;;;;;;2.37;2.07;;;0.10;99.90;;;;;;5049287;28;20483;-73
2023/04/03 02:12:39;;;;;;;6.00;1.97;;;0.10;99.90;;;;;;5051563;28;20181;-72
2023/04/03 02:15:05;;;;;;;1.50;1.37;;;0.00;99.90;;;;;;5051656;28;20544;-73
2023/04/03 02:17:31;;;;;;;2.53;1.53;;;0.00;99.90;;;;;;5048594;28;20259;-73
2023/04/03 02:19:57;;;;;;;2.83;1.20;;;0.00;99.90;;;;;;5051886;28;20444;-74
2023/04/03 02:22:22;;;;;;;2.80;1.50;;;0.00;99.90;;;;;;5051436;28;20837;-73
2023/04/03 02:24:48;;;;;;;2.07;1.60;;;0.00;99.90;;;;;;5051286;28;20186;-73
2023/04/03 02:27:14;;;;;;;4.50;1.40;;;-0.10;99.90;;;;;;5050876;28;20204;-73
2023/04/03 02:29:40;;;;;;;1.83;1.23;;;-0.10;99.90;;;;;;5051621;28;20199;-73
2023/04/03 02:32:05;;;;;;;4.10;1.17;;;-0.10;99.90;;;;;;5051362;28;20930;-72
2023/04/03 02:34:31;;;;;;;5.43;1.80;;;-0.10;99.90;;;;;;5048726;28;20183;-72
2023/04/03 02:36:56;;;;;;;2.37;1.63;;;-0.10;99.90;;;;;;5051833;28;20536;-72
2023/04/03 02:39:22;;;;;;;5.77;2.10;;;-0.10;99.90;;;;;;5051157;28;20178;-73
2023/04/03 02:41:48;;;;;;;4.70;1.50;;;-0.10;99.90;;;;;;5051393;28;20193;-73
2023/04/03 02:44:13;;;;;;;7.10;1.47;;;-0.10;99.90;;;;;;5051175;28;20182;-72
2023/04/03 02:46:39;;;;;;;5.03;1.53;;;-0.20;99.90;;;;;;5051021;28;20277;-73
2023/04/03 02:49:05;;;;;;;3.40;1.60;;;-0.20;99.90;;;;;;5050897;28;20975;-73
2023/04/03 02:51:31;;;;;;;4.63;1.50;;;-0.20;99.90;;;;;;5050933;28;20258;-73
2023/04/03 02:53:56;;;;;;;3.80;1.97;;;-0.20;99.90;;;;;;5051618;28;20444;-72
2023/04/03 02:56:22;;;;;;;4.00;1.30;;;-0.20;99.90;;;;;;5050884;28;20195;-73
2023/04/03 02:58:48;;;;;;;2.37;1.53;;;-0.30;99.90;;;;;;5050955;28;20210;-73
2023/04/03 03:01:14;;;;;;;4.80;1.97;;;-0.30;99.90;;;;;;5050913;28;20257;-74
2023/04/03 03:03:39;;;;;;;3.33;1.63;;;-0.30;99.90;;;;;;5050928;28;20170;-73
2023/04/03 03:06:08;;;;;;;1.40;1.30;;;-0.30;99.90;;;;;;5050976;28;20449;-72
2023/04/03 03:08:35;;;;;;;2.00;1.53;;;-0.30;99.90;;;;;;5050531;28;20645;-72
2023/04/03 03:11:01;;;;;;;1.57;1.47;;;-0.40;99.90;;;;;;5050726;28;20475;-71
2023/04/03 03:13:27;;;;;;;7.33;1.60;;;-0.40;99.90;;;;;;5050796;28;20516;-73
2023/04/03 03:15:52;;;;;;;3.97;1.70;;;-0.40;99.90;;;;;;5049768;28;20922;-73
2023/04/03 03:18:18;;;;;;;1.40;1.20;;;-0.40;99.90;;;;;;5050579;28;20444;-72
2023/04/03 03:20:44;;;;;;;2.47;2.07;;;-0.50;99.90;;;;;;5050807;28;20261;-72
2023/04/03 03:23:10;;;;;;;3.70;1.80;;;-0.50;99.90;;;;;;5050933;28;20174;-73
2023/04/03 03:25:42;;;;;;;3.00;2.27;;;-0.50;99.90;;;;;;5048066;28;20421;-73
2023/04/03 03:28:08;;;;;;;2.70;1.63;;;-0.50;99.90;;;;;;5050667;28;20480;-73
2023/04/03 03:30:34;;;;;;;1.87;1.33;;;-0.50;99.90;;;;;;5050603;28;20410;-72
2023/04/03 03:32:59;;;;;;;2.00;1.80;;;-0.50;99.90;;;;;;5050789;28;20301;-72
2023/04/03 03:35:25;;;;;;;2.10;1.83;;;-0.60;99.90;;;;;;5050246;28;20846;-73
2023/04/03 03:37:51;;;;;;;3.30;1.53;;;-0.60;99.90;;;;;;5050021;28;20194;-72
2023/04/03 03:40:16;;;;;;;6.20;2.57;;;-0.60;99.90;;;;;;5050410;28;20178;-72
2023/04/03 03:42:42;;;;;;;1.90;1.40;;;-0.60;99.90;;;;;;5051006;28;20179;-72
2023/04/03 03:45:08;;;;;;;7.37;1.40;;;-0.60;99.90;;;;;;5050507;28;20187;-73
2023/04/03 03:47:34;;;;;;;2.80;1.67;;;-0.70;99.90;;;;;;5050111;28;20242;-72
2023/04/03 03:50:00;;;;;;;7.63;2.13;;;-0.70;99.90;;;;;;5050309;28;20456;-73
2023/04/03 03:52:26;;;;;;;2.63;2.03;;;-0.70;99.90;;;;;;5049952;28;20174;-72
2023/04/03 03:54:52;;;;;;;2.30;1.40;;;-0.70;99.90;;;;;;5050303;28;20413;-72
2023/04/03 03:57:17;;;;;;;3.67;1.40;;;-0.80;99.90;;;;;;5050150;28;20194;-73
2023/04/03 03:59:44;;;;;;;4.00;2.03;;;-0.80;99.90;;;;;;5050234;28;20226;-73
2023/04/03 04:02:10;;;;;;;2.87;1.20;;;-0.80;99.90;;;;;;5050296;28;20175;-72
2023/04/03 04:04:36;;;;;;;2.27;2.07;;;-0.80;99.90;;;;;;5046713;28;20596;-72
2023/04/03 04:07:03;;;;;;;4.33;1.60;;;-0.80;99.90;;;;;;5049769;28;20563;-73
2023/04/03 04:09:29;;;;;;;2.30;1.60;;;-0.90;99.90;;;;;;5050167;28;20508;-73
2023/04/03 04:11:55;;;;;;;1.77;1.50;;;-0.90;99.90;;;;;;5047509;28;20412;-73
2023/04/03 04:14:20;;;;;;;1.80;1.40;;;-0.90;99.90;;;;;;5049986;28;20775;-72
2023/04/03 04:16:47;;;;;;;3.83;2.10;;;-0.90;99.90;;;;;;5049943;28;20298;-73
2023/04/03 04:19:13;;;;;;;1.93;1.83;;;-0.90;99.90;;;;;;5049837;28;20175;-73
2023/04/03 04:21:39;;;;;;;1.87;1.70;;;-0.90;99.90;;;;;;5049946;28;20417;-73
2023/04/03 04:24:05;;;;;;;3.60;1.80;;;-0.90;99.90;;;;;;5050118;28;20445;-72
2023/04/03 04:26:31;;;;;;;1.93;1.53;;;-0.90;99.90;;;;;;5050022;28;20473;-72
2023/04/03 04:28:57;;;;;;;2.80;1.57;;;-0.90;99.90;;;;;;5053145;28;20508;-73
2023/04/03 04:31:22;;;;;;;2.40;1.20;;;-1.00;99.90;;;;;;5054056;28;20175;-72
2023/04/03 04:33:48;;;;;;;4.83;2.10;;;-1.00;99.90;;;;;;5057615;28;20183;-72
2023/04/03 04:36:14;;;;;;;4.23;1.23;;;-1.00;99.90;;;;;;5057265;28;20527;-72
2023/04/03 04:38:40;;;;;;;3.33;1.80;;;-1.00;99.90;;;;;;5059332;28;20202;-73
2023/04/03 04:41:06;;;;;;;1.60;1.50;;;-1.00;99.90;;;;;;5056104;28;20408;-72
2023/04/03 04:43:32;;;;;;;1.57;1.30;;;-1.00;99.90;;;;;;5053617;28;20895;-72
2023/04/03 04:46:09;;;;;;;3.40;1.50;;;-0.90;99.90;;;;;;5052507;28;20277;-72
2023/04/03 04:48:35;;;;;;;2.63;1.73;;;-0.90;99.90;;;;;;5053564;28;20181;-72
2023/04/03 04:51:01;;;;;;;2.50;1.23;;;-0.90;99.90;;;;;;5052095;28;20464;-72
2023/04/03 04:53:27;;;;;;;1.40;1.30;;;-0.90;99.90;;;;;;5052223;28;20462;-73
2023/04/03 04:55:53;;;;;;;2.70;1.73;;;-0.90;99.90;;;;;;5053032;28;20425;-72
2023/04/03 04:58:19;;;;;;;2.30;1.50;;;-0.80;99.90;;;;;;5053109;28;20500;-71
2023/04/03 05:00:45;;;;;;;2.90;1.57;;;-0.80;99.90;;;;;;5053126;28;20167;-73
2023/04/03 05:03:11;;;;;;;2.00;1.63;;;-0.80;99.90;;;;;;5052839;28;20405;-72
2023/04/03 05:05:37;;;;;;;2.83;1.53;;;-0.80;99.90;;;;;;5052840;28;20550;-72
2023/04/03 05:08:03;;;;;;;8.23;1.47;;;-0.80;99.90;;;;;;5083896;22;21031;-75
2023/04/03 05:10:29;;;;;;;3.17;1.90;;;-0.70;99.90;;;;;;5053725;28;20194;-75
2023/04/03 05:12:54;;;;;;;5.17;2.60;;;-0.70;99.90;;;;;;5051608;28;20417;-74
2023/04/03 05:15:20;;;;;;;2.07;1.50;;;-0.70;99.90;;;;;;5044598;28;20468;-69
2023/04/03 05:17:46;;;;;;;5.40;1.83;;;-0.70;99.90;;;;;;5052785;28;20334;-74
2023/04/03 05:20:12;;;;;;;3.87;1.77;;;-0.60;99.90;;;;;;5053134;28;20258;-74
2023/04/03 05:22:37;;;;;;;1.27;1.10;;;-0.60;99.90;;;;;;5048911;28;20199;-74
2023/04/03 05:25:04;;;;;;;4.30;1.97;;;-0.50;99.90;;;;;;5053445;28;20405;-73
2023/04/03 05:27:29;;;;;;;1.70;1.60;;;-0.50;99.90;;;;;;5053167;28;20467;-73
2023/04/03 05:29:55;;;;;;;3.57;2.23;;;-0.40;99.90;;;;;;5048963;28;20501;-73
2023/04/03 05:32:22;;;;;;;1.60;1.50;;;-0.30;99.90;;;;;;5050978;28;20175;-73
2023/04/03 05:34:48;;;;;;;1.20;1.10;;;-0.30;99.90;;;;;;5052987;28;20173;-73
2023/04/03 05:37:14;;;;;;;3.20;1.83;;;-0.20;99.90;;;;;;5052831;28;20883;-73
2023/04/03 05:39:40;;;;;;;4.20;1.30;;;-0.10;99.90;;;;;;5052004;28;20684;-73
2023/04/03 05:42:07;;;;;;;1.70;1.40;;;-0.10;99.90;;;;;;5052935;28;20229;-72
2023/04/03 05:44:33;;;;;;;2.10;1.40;;;0.00;99.90;;;;;;5052640;28;20439;-73
2023/04/03 05:46:59;;;;;;;7.30;2.40;;;0.10;99.90;;;;;;5051231;28;20449;-73
2023/04/03 05:49:25;;;;;;;8.10;1.97;;;0.20;99.90;;;;;;5052756;28;20410;-73
2023/04/03 05:51:54;;;;;;;2.87;1.90;;;0.40;99.90;;;;;;5052879;28;20416;-73
2023/04/03 05:54:23;;;;;;;1.83;1.23;;;1.00;99.90;;;;;;5052627;28;20167;-73
2023/04/03 05:56:52;;;;;;;4.20;1.53;;;1.60;99.90;;;;;;5052558;28;20406;-73
2023/04/03 05:59:19;;;;;;;3.03;1.77;;;2.10;99.90;;;;;;5052934;28;20754;-74
2023/04/03 06:01:45;;;;;;;2.73;1.57;;;2.90;99.90;;;;;;5053361;28;20409;-74
2023/04/03 06:04:12;;;;;;;1.77;1.23;;;3.20;99.90;;;;;;5053117;28;20429;-74
2023/04/03 06:06:55;;;;;;;6.87;1.77;;;4.00;99.90;;;;;;5045254;28;20437;-75
2023/04/03 06:09:24;;;;;;;2.10;0.93;;;4.40;99.90;;;;;;5039515;28;20907;-74
2023/04/03 06:11:50;;;;;;;2.20;1.37;;;4.90;99.90;;;;;;5052714;28;20410;-73
2023/04/03 06:14:15;;;;;;;4.40;1.30;;;5.20;99.90;;;;;;5051868;28;20847;-74
2023/04/03 06:16:41;;;;;;;1.20;1.10;;;4.80;99.90;;;;;;5053307;28;20489;-78
2023/04/03 06:19:11;;;;;;;1.40;1.10;;;4.90;99.90;;;;;;5052188;28;20233;-73
2023/04/03 06:21:37;;;;;;;1.53;1.23;;;5.10;99.90;;;;;;5052058;28;20257;-73
2023/04/03 06:24:04;;;;;;;6.63;1.40;;;5.50;99.90;;;;;;5051782;28;20434;-73
2023/04/03 06:26:30;;;;;;;4.50;1.33;;;6.40;99.90;;;;;;5051876;28;20932;-73
2023/04/03 06:28:56;;;;;;;3.00;1.40;;;6.50;99.90;;;;;;5051659;28;20535;-73
2023/04/03 06:31:22;;;;;;;1.93;1.43;;;6.50;99.90;;;;;;5051556;28;20172;-72
2023/04/03 06:33:47;;;;;;;2.80;1.50;;;6.50;99.90;;;;;;5052372;28;20167;-73
2023/04/03 06:36:13;;;;;;;2.17;1.97;;;5.90;99.90;;;;;;5051276;28;20532;-73
2023/04/03 06:38:39;;;;;;;3.93;1.83;;;6.10;99.90;;;;;;5051397;28;20190;-72
2023/04/03 06:41:05;;;;;;;3.90;1.13;;;6.10;99.90;;;;;;5051432;28;20511;-74
2023/04/03 06:43:33;;;;;;;5.10;1.57;;;6.30;99.90;;;;;;5046112;28;20421;-74
2023/04/03 06:45:58;;;;;;;2.53;1.13;;;6.90;99.90;;;;;;5051256;28;20161;-73
2023/04/03 06:48:24;;;;;;;1.50;1.40;;;7.00;99.90;;;;;;5050916;28;20510;-73
2023/04/03 06:50:50;;;;;;;3.93;1.20;;;6.80;99.90;;;;;;5050993;28;20206;-73
2023/04/03 06:53:16;;;;;;;2.53;1.20;;;7.20;99.90;;;;;;5051355;28;20195;-72
2023/04/03 06:55:41;;;;;;;3.57;1.13;;;7.40;99.90;;;;;;5051261;28;20402;-74
2023/04/03 06:58:07;;;;;;;5.80;1.50;;;7.00;99.90;;;;;;5050294;28;20564;-72
2023/04/03 07:00:33;;;;;;;6.83;1.43;;;7.80;99.90;;;;;;5050666;28;20530;-74
2023/04/03 07:02:59;;;;;;;2.30;1.20;;;7.70;99.90;;;;;;5037180;28;20430;-74
2023/04/03 07:05:26;;;;;;;1.70;1.20;;;8.10;99.90;;;;;;5038056;28;20465;-75
2023/04/03 07:07:52;;;;;;;2.40;1.13;;;8.20;99.90;;;;;;5050454;28;20461;-72
2023/04/03 07:10:18;;;;;;;5.30;1.10;;;8.50;99.90;;;;;;5050710;28;20413;-72
2023/04/03 07:12:44;;;;;;;1.23;0.80;;;7.80;99.90;;;;;;5050385;28;20802;-72
2023/04/03 07:15:10;;;;;;;2.87;1.13;;;8.00;99.90;;;;;;5042848;28;20650;-72
2023/04/03 07:17:36;;;;;;;1.50;1.00;;;7.80;99.90;;;;;;5050471;28;20537;-71
2023/04/03 07:20:03;;;;;;;3.87;1.10;;;7.40;99.90;;;;;;5048613;28;20529;-73
2023/04/03 07:22:29;;;;;;;1.10;1.03;;;7.40;99.90;;;;;;5049983;28;20653;-72
2023/04/03 07:24:55;;;;;;;2.90;1.40;;;6.80;99.90;;;;;;5050648;28;20492;-73
2023/04/03 07:27:20;;;;;;;2.47;0.97;;;5.90;99.90;;;;;;5048778;28;20545;-73
2023/04/03 07:29:48;;;;;;;2.50;1.10;;;5.80;99.90;;;;;;5046806;28;20186;-72
2023/04/03 07:32:17;;;;;;;3.40;1.20;;;5.90;99.90;;;;;;5044435;28;20589;-73
2023/04/03 07:34:43;;;;;;;1.87;1.00;;;6.00;99.90;;;;;;5046447;28;20427;-72
2023/04/03 07:37:09;;;;;;;2.70;1.30;;;6.40;99.90;;;;;;5045795;28;20411;-72
2023/04/03 07:39:35;;;;;;;2.80;0.90;;;6.70;99.90;;;;;;5047537;28;20416;-73
2023/04/03 07:42:01;;;;;;;3.40;1.30;;;7.60;99.90;;;;;;5049264;28;20248;-74
2023/04/03 07:44:27;;;;;;;2.50;1.00;;;7.80;98.60;;;;;;5050527;28;20528;-73
2023/04/03 07:46:54;;;;;;;2.90;1.40;;;7.50;98.70;;;;;;5046782;28;20487;-73
2023/04/03 07:49:22;;;;;;;4.70;2.03;;;7.20;99.60;;;;;;5051320;28;20432;-72
2023/04/03 07:51:48;;;;;;;0.90;0.83;;;7.20;99.90;;;;;;5050533;28;20919;-72
2023/04/03 07:54:15;;;;;;;5.70;1.87;;;7.40;99.00;;;;;;5050342;28;20451;-73
2023/04/03 07:56:42;;;;;;;2.40;1.00;;;7.10;99.10;;;;;;5051343;28;20408;-73
2023/04/03 07:59:08;;;;;;;1.57;1.13;;;6.30;98.90;;;;;;5051316;28;20433;-73
2023/04/03 08:01:34;;;;;;;1.50;1.20;;;5.60;99.90;;;;;;5050005;28;20509;-73
2023/04/03 08:04:00;;;;;;;2.10;1.10;;;5.80;99.90;;;;;;5047373;28;20955;-73
2023/04/03 08:06:26;;;;;;;1.90;1.40;;;5.30;99.90;;;;;;5053606;28;20592;-73
2023/04/03 08:08:51;;;;;;;2.80;1.20;;;4.60;99.90;;;;;;5054616;28;20538;-72
2023/04/03 08:11:18;;;;;;;2.20;1.27;;;4.50;99.90;;;;;;5052724;28;20178;-74
2023/04/03 08:13:44;;;;;;;0.80;0.80;;;4.00;99.90;;;;;;5054970;28;20755;-73
2023/04/03 08:16:16;;;;;;;2.30;1.20;;;4.20;99.90;;;;;;5049391;28;20502;-72
2023/04/03 08:18:42;;;;;;;4.10;1.30;;;4.10;99.90;;;;;;5047190;28;20575;-72
2023/04/03 08:21:10;;;;;;;2.90;1.43;;;4.10;99.90;;;;;;5053297;28;20456;-72
2023/04/03 08:23:37;;;;;;;1.13;1.00;;;4.20;99.90;;;;;;5054923;28;20209;-73
2023/04/03 08:26:21;;;;;;;1.20;1.10;;;4.20;99.90;;;;;;5054849;28;20497;-73
2023/04/03 08:28:48;;;;;;;3.17;1.37;;;4.20;99.90;;;;;;5046840;28;21005;-72
2023/04/03 08:31:16;;;;;;;4.20;1.13;;;4.10;99.90;;;;;;5053606;28;20417;-73
2023/04/03 08:33:42;;;;;;;2.80;1.93;;;4.20;99.90;;;;;;5054790;28;20433;-74
2023/04/03 08:36:24;;;;;;;1.20;1.10;;;4.20;99.90;;;;;;5054970;28;21030;-74
2023/04/03 08:38:50;;;;;;;4.40;1.47;;;4.30;99.90;;;;;;5044954;28;20195;-73
2023/04/03 08:41:30;;;;;;;4.03;1.00;;;4.40;99.90;;;;;;5054723;28;20436;-73
2023/04/03 08:44:16;;;;;;;1.20;1.10;;;4.60;99.90;;;;;;5052746;28;20401;-73
2023/04/03 08:47:11;;;;;;;1.10;1.00;;;4.50;99.90;;;;;;5053943;28;20449;-74
2023/04/03 08:49:51;;;;;;;1.83;1.20;;;4.20;99.90;;;;;;5057769;28;20398;-74
2023/04/03 08:52:48;;;;;;;1.43;1.00;;;4.10;99.90;;;;;;5057689;28;20496;-74
2023/04/03 08:55:34;;;;;;;2.70;2.00;;;4.20;99.90;;;;;;5048645;28;20429;-73
2023/04/03 08:58:17;;;;;;;2.50;0.90;;;4.30;99.90;;;;;;5056601;28;20425;-73
2023/04/03 09:00:51;;;;;;;5.57;1.47;;;4.30;99.90;;;;;;5044475;28;20784;-73
2023/04/03 09:03:21;;;;;;;1.20;1.10;;;4.40;99.90;;;;;;5056148;28;20480;-73
2023/04/03 09:06:06;;;;;;;1.17;0.80;;;4.60;99.90;;;;;;5054390;28;20421;-73
2023/04/03 09:08:51;;;;;;;2.30;1.30;;;5.30;99.90;;;;;;5052981;28;20456;-72
2023/04/03 09:11:23;;;;;;;3.27;1.10;;;4.90;99.90;;;;;;5052981;28;20921;-72
2023/04/03 09:14:18;;;;;;;1.20;0.97;;;4.70;99.80;;;;;;5049167;28;20493;-73
2023/04/03 09:16:54;;;;;;;2.27;1.30;;;4.70;99.40;;;;;;5046774;28;20417;-73
2023/04/03 09:19:23;;;;;;;1.00;0.90;;;4.80;99.00;;;;;;5052789;28;20484;-72
2023/04/03 09:21:49;;;;;;;1.23;1.10;;;4.90;99.00;;;;;;5052775;28;20915;-73
2023/04/03 09:24:17;;;;;;;3.63;1.20;;;4.90;98.60;;;;;;5053067;28;20420;-73
2023/04/03 09:26:48;;;;;;;1.93;1.10;;;5.00;98.70;;;;;;5052993;28;20970;-73
2023/04/03 09:29:22;;;;;;;1.13;1.03;;;6.00;98.20;;;;;;5048096;28;20426;-74
2023/04/03 09:31:51;;;;;;;2.70;1.17;;;6.20;97.20;;;;;;5052763;28;20406;-74
2023/04/03 09:34:34;;;;;;;3.40;1.03;;;5.80;97.50;;;;;;5052348;28;20420;-73
2023/04/03 09:37:05;;;;;;;2.50;1.00;;;5.80;98.20;;;;;;5052672;28;20508;-72
2023/04/03 09:39:33;;;;;;;1.10;0.90;;;5.70;96.70;;;;;;5052635;28;20516;-73
2023/04/03 09:42:01;;;;;;;2.43;1.40;;;5.40;97.80;;;;;;5052937;28;20413;-73
2023/04/03 09:44:35;;;;;;;1.27;1.17;;;5.30;98.00;;;;;;5052812;28;20769;-73
2023/04/03 09:47:29;;;;;;;1.73;1.20;;;5.20;98.30;;;;;;5052899;28;20460;-72
2023/04/03 09:50:13;;;;;;;2.23;2.13;;;4.90;98.30;;;;;;5048671;28;20903;-73
2023/04/03 09:52:40;;;;;;;3.20;1.10;;;4.70;98.90;;;;;;5052128;28;20431;-73
2023/04/03 09:55:10;;;;;;;4.07;1.70;;;4.80;99.00;;;;;;5052278;28;20505;-72
2023/04/03 09:57:36;;;;;;;1.23;0.93;;;4.90;98.90;;;;;;5052209;28;20516;-72
2023/04/03 10:00:04;;;;;;;3.57;1.30;;;4.90;98.90;;;;;;5052391;28;20513;-72
2023/04/03 10:02:42;;;;;;;1.20;1.10;;;5.10;98.80;;;;;;5048941;28;20635;-72
2023/04/03 10:05:39;;;;;;;2.60;1.20;;;5.20;98.80;;;;;;5052019;28;20420;-73
2023/04/03 10:08:13;;;;;;;2.60;1.20;;;5.40;98.50;;;;;;5052159;28;20453;-73
2023/04/03 10:10:41;;;;;;;1.20;1.10;;;5.50;98.20;;;;;;5042699;28;20404;-74
2023/04/03 10:13:20;;;;;;;2.70;1.17;;;5.40;97.60;;;;;;5052389;28;20417;-74
2023/04/03 10:16:03;;;;;;;1.87;1.10;;;5.30;97.70;;;;;;5039261;28;20421;-72
2023/04/03 10:18:38;;;;;;;1.10;1.00;;;5.20;97.90;;;;;;5047875;28;20456;-74
2023/04/03 10:21:19;;;;;;;0.80;0.80;;;5.40;97.70;;;;;;5043408;28;20431;-73
2023/04/03 10:24:02;;;;;;;1.60;1.50;;;5.30;97.10;;;;;;5041926;28;20433;-74
2023/04/03 10:26:51;;;;;;;1.70;1.40;;;5.50;97.20;;;;;;5040118;28;20778;-74
2023/04/03 10:29:49;;;;;;;0.90;0.80;;;5.70;96.90;;;;;;5051680;28;20409;-73
2023/04/03 10:32:45;;;;;;;1.03;0.87;;;5.80;95.50;;;;;;5041264;28;20516;-73
2023/04/03 10:35:30;;;;;;;1.53;1.17;;;5.60;95.60;;;;;;5037719;28;20440;-72
2023/04/03 10:38:15;;;;;;;1.77;0.97;;;5.70;96.10;;;;;;5048370;28;20486;-74
2023/04/03 10:40:54;;;;;;;1.30;0.90;;;6.00;95.30;;;;;;5044363;28;20414;-74
2023/04/03 10:43:28;;;;;;;1.60;0.90;;;5.90;95.30;;;;;;5051663;28;20497;-73
2023/04/03 10:46:07;;;;;;;2.90;1.57;;;6.00;95.30;;;;;;5051533;28;20894;-73
2023/04/03 10:48:35;;;;;;;1.33;1.10;;;6.10;94.90;;;;;;5051586;28;20460;-73
2023/04/03 10:51:01;;;;;;;0.87;0.87;;;5.90;95.30;;;;;;5051730;28;20401;-74
2023/04/03 10:53:47;;;;;;;1.23;0.93;;;6.10;95.80;;;;;;5043995;28;20424;-72
2023/04/03 10:56:35;;;;;;;0.87;0.80;;;6.40;95.20;;;;;;5048914;28;20437;-74
2023/04/03 10:59:20;;;;;;;1.83;0.73;;;6.30;94.40;;;;;;5044369;28;20538;-73
2023/04/03 11:01:55;;;;;;;1.37;1.13;;;6.10;94.70;;;;;;5048403;28;20421;-72
2023/04/03 11:04:23;;;;;;;1.23;1.10;;;6.00;95.30;;;;;;5041310;28;20529;-72
2023/04/03 11:06:57;;;;;;;2.53;1.03;;;6.10;95.30;;;;;;5043292;28;20476;-72
2023/04/03 11:09:28;;;;;;;3.43;1.03;;;5.90;95.50;;;;;;5051167;28;20451;-72
2023/04/03 11:12:02;;;;;;;1.27;0.90;;;5.90;95.80;;;;;;5051434;28;20409;-71
2023/04/03 11:14:28;;;;;;;5.30;1.50;;;5.90;95.90;;;;;;5051515;28;20520;-71
2023/04/03 11:17:12;;;;;;;2.50;1.80;;;5.80;96.10;;;;;;5050927;28;20423;-72
2023/04/03 11:20:17;;;;;;;2.20;1.50;;;5.60;96.30;;;;;;5050662;28;20420;-71
2023/04/03 11:22:51;;;;;;;1.33;1.10;;;5.70;97.30;;;;;;4969837;28;20920;-71
2023/04/03 11:25:23;;;;;;;2.03;1.00;;;5.70;96.20;;;;;;5037056;28;20480;-71
2023/04/03 11:28:01;;;;;;;2.03;1.07;;;5.70;96.50;;;;;;5050740;28;20468;-72
2023/04/03 11:30:45;;;;;;;1.83;1.33;;;5.60;97.20;;;;;;5049439;28;20405;-72
2023/04/03 11:33:49;;;;;;;1.10;1.00;;;5.60;96.80;;;;;;5046532;28;20413;-72
2023/04/03 11:36:30;;;;;;;1.00;1.00;;;5.70;97.00;;;;;;5047707;28;20440;-71
2023/04/03 11:39:00;;;;;;;1.00;0.80;;;5.70;96.80;;;;;;5054117;28;20440;-71
2023/04/03 11:41:28;;;;;;;2.03;1.20;;;5.90;97.20;;;;;;5054777;28;20441;-71
2023/04/03 11:44:23;;;;;;;1.23;0.80;;;5.90;97.70;;;;;;5055079;28;20479;-71
2023/04/03 11:46:51;;;;;;;1.77;1.00;;;6.10;97.40;;;;;;5052548;28;20869;-71
2023/04/03 11:49:59;;;;;;;1.10;1.00;;;6.10;97.00;;;;;;5037685;28;20430;-71
2023/04/03 11:52:40;;;;;;;2.13;1.53;;;6.10;96.90;;;;;;5037475;28;21127;-71
2023/04/03 11:55:23;;;;;;;1.50;1.20;;;6.20;96.80;;;;;;5051657;28;20405;-72
2023/04/03 11:57:57;;;;;;;2.13;1.17;;;6.30;96.90;;;;;;5046998;28;20524;-71
2023/04/03 12:00:51;;;;;;;2.53;1.27;;;6.00;97.20;;;;;;5052827;28;20425;-71
2023/04/03 12:03:22;;;;;;;1.73;1.30;;;5.70;97.30;;;;;;5051469;28;20870;-72
2023/04/03 12:05:48;;;;;;;3.13;0.97;;;5.80;97.60;;;;;;5073265;22;20394;-74
2023/04/03 12:08:26;;;;;;;1.00;1.00;;;5.90;97.90;;;;;;5030676;28;20496;-78
2023/04/03 12:11:10;;;;;;;1.67;1.57;;;5.90;97.70;;;;;;5037426;28;20469;-76
2023/04/03 12:14:03;;;;;;;1.30;1.20;;;5.90;97.50;;;;;;5034546;28;20409;-76
2023/04/03 12:16:38;;;;;;;0.93;0.93;;;6.00;97.80;;;;;;5024102;28;20476;-75
2023/04/03 12:19:35;;;;;;;1.40;1.30;;;6.00;97.60;;;;;;5037053;28;20505;-76
2023/04/03 12:22:00;;;;;;;1.40;1.10;;;5.90;97.90;;;;;;5032810;28;20403;-76
2023/04/03 12:24:33;;;;;;;3.10;1.20;;;5.80;98.40;;;;;;5047756;28;20432;-77
2023/04/03 12:27:04;;;;;;;1.20;1.10;;;5.80;98.20;;;;;;5042263;28;20215;-75
2023/04/03 12:29:33;;;;;;;1.53;1.10;;;5.30;98.60;;;;;;5042168;28;20494;-77
2023/04/03 12:32:11;;;;;;;2.07;1.07;;;5.40;99.40;;;;;;5041940;28;20415;-76
2023/04/03 12:35:05;;;;;;;4.90;1.03;;;5.60;99.80;;;;;;5026214;28;20438;-77
2023/04/03 12:37:42;;;;;;;1.47;1.00;;;5.60;98.50;;;;;;5030811;28;20492;-77
2023/04/03 12:40:32;;;;;;;1.57;1.00;;;5.70;97.90;;;;;;5034280;28;20433;-77
2023/04/03 12:43:06;;;;;;;4.13;1.00;;;5.70;97.20;;;;;;5030186;28;20418;-77
2023/04/03 12:45:56;;;;;;;1.10;1.00;;;5.70;97.10;;;;;;5036189;28;20411;-76
2023/04/03 12:48:28;;;;;;;2.03;1.93;;;6.00;96.90;;;;;;5040708;28;20458;-76
2023/04/03 12:50:55;;;;;;;1.37;1.00;;;6.10;97.30;;;;;;5035101;28;20517;-79
2023/04/03 12:53:34;;;;;;;1.80;1.10;;;6.10;96.60;;;;;;5032966;28;20419;-77
2023/04/03 12:56:20;;;;;;;2.20;1.27;;;6.10;96.10;;;;;;5033877;28;20499;-78
2023/04/03 12:58:49;;;;;;;1.43;1.30;;;6.00;96.30;;;;;;5036244;28;20446;-81
2023/04/03 13:01:19;;;;;;;0.83;0.80;;;6.20;96.50;;;;;;5038007;28;20418;-78
2023/04/03 13:03:48;;;;;;;1.43;1.10;;;6.00;96.80;;;;;;5040812;28;20421;-77
2023/04/03 13:06:26;;;;;;;1.10;1.00;;;5.70;96.80;;;;;;5039511;28;20454;-77
2023/04/03 13:08:58;;;;;;;0.80;0.80;;;5.80;97.40;;;;;;5038845;28;20987;-77
2023/04/03 13:11:26;;;;;;;0.97;0.83;;;5.90;97.20;;;;;;5043387;28;20414;-79